Time,TemperatureF,DewpointF,PressureIn,WindDirection,WindDirectionDegrees,WindSpeedMPH,WindSpeedGustMPH,Humidity,HourlyPrecipIn,Conditions,Clouds,dailyrainin,SoftwareType,DateUTC
2013-01-27 00:01:00,36.1,34.0,30.03,WSW,246,0.0,9.0,92,0.00,,,0.01,meteohub,2013-01-27 08:01:00,
2013-01-27 00:06:00,36.3,34.5,30.03,ENE,71,1.0,9.0,93,0.00,,,0.00,meteohub,2013-01-27 08:06:00,
2013-01-27 00:11:00,36.7,34.9,30.03,ENE,73,2.0,7.0,93,0.00,,,0.00,meteohub,2013-01-27 08:11:00,
2013-01-27 00:17:00,37.0,35.2,30.03,ENE,72,1.0,3.0,93,0.00,,,0.00,meteohub,2013-01-27 08:17:00,
2013-01-27 00:22:00,37.6,35.4,30.03,East,80,0.0,3.0,92,0.00,,,0.00,meteohub,2013-01-27 08:22:00,
2013-01-27 00:27:00,37.4,35.2,30.03,SSW,198,1.0,2.0,92,0.00,,,0.00,meteohub,2013-01-27 08:27:00,
2013-01-27 00:32:00,37.2,34.9,30.03,SW,225,0.0,2.0,91,0.00,,,0.00,meteohub,2013-01-27 08:32:00,
2013-01-27 00:37:00,37.0,34.7,30.02,SW,225,0.0,2.0,91,0.00,,,0.00,meteohub,2013-01-27 08:37:00,
2013-01-27 00:42:00,36.9,34.5,30.02,NNE,17,0.0,2.0,91,0.00,,,0.00,meteohub,2013-01-27 08:42:00,
2013-01-27 00:47:00,37.0,34.9,30.02,NNE,17,0.0,2.0,92,0.00,,,0.00,meteohub,2013-01-27 08:47:00,
2013-01-27 00:52:00,37.2,35.1,30.02,NNE,17,0.0,2.0,92,0.00,,,0.00,meteohub,2013-01-27 08:52:00,
2013-01-27 00:57:00,37.0,34.9,30.02,NNE,17,0.0,1.0,92,0.00,,,0.00,meteohub,2013-01-27 08:57:00,
2013-01-27 01:02:00,36.9,34.7,30.02,NNE,17,0.0,0.0,92,0.00,,,0.00,meteohub,2013-01-27 09:02:00,
2013-01-27 01:07:00,36.9,34.7,30.02,NNE,17,0.0,0.0,92,0.00,,,0.00,meteohub,2013-01-27 09:07:00,
2013-01-27 01:12:00,36.7,34.5,30.02,NNE,17,0.0,0.0,92,0.00,,,0.00,meteohub,2013-01-27 09:12:00,
2013-01-27 01:17:00,36.7,34.5,30.02,NNW,346,1.0,1.0,92,0.00,,,0.00,meteohub,2013-01-27 09:17:00,
2013-01-27 01:22:00,36.3,34.2,30.02,WNW,287,0.0,1.0,92,0.00,,,0.00,meteohub,2013-01-27 09:22:00,
2013-01-27 01:27:00,36.1,34.0,30.02,NNE,32,1.0,1.0,92,0.00,,,0.00,meteohub,2013-01-27 09:27:00,
2013-01-27 01:32:00,36.1,34.3,30.02,NNE,31,0.0,2.0,93,0.00,,,0.00,meteohub,2013-01-27 09:32:00,
2013-01-27 01:37:00,36.1,34.3,30.02,NNE,32,1.0,2.0,93,0.00,,,0.00,meteohub,2013-01-27 09:37:00,
2013-01-27 01:42:00,36.1,34.3,30.02,NNE,32,0.0,2.0,93,0.00,,,0.00,meteohub,2013-01-27 09:42:00,
2013-01-27 01:47:00,36.0,34.2,30.02,NNE,31,0.0,1.0,93,0.00,,,0.00,meteohub,2013-01-27 09:47:00,
2013-01-27 01:52:00,35.8,34.0,30.03,NNE,31,0.0,1.0,93,0.00,,,0.00,meteohub,2013-01-27 09:52:00,
2013-01-27 01:57:00,35.4,33.6,30.03,NNE,27,0.0,0.0,93,0.00,,,0.00,meteohub,2013-01-27 09:57:00,
2013-01-27 02:02:00,35.2,33.4,30.03,West,271,1.0,1.0,93,0.00,,,0.00,meteohub,2013-01-27 10:02:00,
2013-01-27 02:07:00,35.2,33.4,30.04,NNW,330,0.0,2.0,93,0.00,,,0.00,meteohub,2013-01-27 10:07:00,
2013-01-27 02:12:00,35.1,33.3,30.04,NNW,330,0.0,2.0,93,0.00,,,0.00,meteohub,2013-01-27 10:12:00,
2013-01-27 02:17:00,35.2,33.6,30.04,ENE,77,1.0,2.0,94,0.00,,,0.00,meteohub,2013-01-27 10:17:00,
2013-01-27 02:23:00,35.2,33.6,30.04,ENE,77,0.0,1.0,94,0.00,,,0.00,meteohub,2013-01-27 10:23:00,
2013-01-27 02:28:00,35.1,33.3,30.04,ENE,76,0.0,1.0,93,0.00,,,0.00,meteohub,2013-01-27 10:28:00,
2013-01-27 02:33:00,34.9,33.1,30.04,NNE,17,1.0,1.0,93,0.00,,,0.00,meteohub,2013-01-27 10:33:00,
2013-01-27 02:38:00,34.9,33.3,30.04,NNE,17,0.0,2.0,94,0.00,,,0.00,meteohub,2013-01-27 10:38:00,
2013-01-27 02:43:00,34.7,33.1,30.04,NNE,13,1.0,2.0,94,0.00,,,0.00,meteohub,2013-01-27 10:43:00,
2013-01-27 02:48:00,34.7,33.1,30.04,NW,315,0.0,2.0,94,0.00,,,0.00,meteohub,2013-01-27 10:48:00,
2013-01-27 02:53:00,34.5,32.9,30.04,NW,315,0.0,2.0,94,0.00,,,0.00,meteohub,2013-01-27 10:53:00,
2013-01-27 02:58:00,34.3,32.7,30.04,NW,315,0.0,1.0,94,0.00,,,0.00,meteohub,2013-01-27 10:58:00,
2013-01-27 03:03:00,34.2,32.5,30.04,NW,312,0.0,0.0,94,0.00,,,0.00,meteohub,2013-01-27 11:03:00,
2013-01-27 03:08:00,34.0,32.4,30.04,NW,312,0.0,1.0,94,0.00,,,0.00,meteohub,2013-01-27 11:08:00,
2013-01-27 03:13:00,34.0,32.4,30.04,East,88,2.0,2.0,94,0.00,,,0.00,meteohub,2013-01-27 11:13:00,
2013-01-27 03:18:00,34.2,32.9,30.04,East,97,0.0,2.0,95,0.00,,,0.00,meteohub,2013-01-27 11:18:00,
2013-01-27 03:23:00,34.2,32.5,30.04,East,96,0.0,2.0,94,0.00,,,0.00,meteohub,2013-01-27 11:23:00,
2013-01-27 03:28:00,34.0,32.4,30.04,South,182,1.0,2.0,94,0.00,,,0.00,meteohub,2013-01-27 11:28:00,
2013-01-27 03:33:00,33.8,32.2,30.04,SW,217,0.0,2.0,94,0.00,,,0.00,meteohub,2013-01-27 11:33:00,
2013-01-27 03:38:00,33.6,32.0,30.04,SW,217,0.0,1.0,94,0.00,,,0.00,meteohub,2013-01-27 11:38:00,
2013-01-27 03:43:00,33.4,31.8,30.04,NE,43,2.0,2.0,94,0.00,,,0.00,meteohub,2013-01-27 11:43:00,
2013-01-27 03:48:00,33.4,32.2,30.04,NNW,342,1.0,2.0,95,0.00,,,0.00,meteohub,2013-01-27 11:48:00,
2013-01-27 03:53:00,33.4,32.2,30.04,NW,312,2.0,2.0,95,0.00,,,0.00,meteohub,2013-01-27 11:53:00,
2013-01-27 03:58:00,33.4,32.2,30.04,NW,312,0.0,4.0,95,0.00,,,0.00,meteohub,2013-01-27 11:58:00,
2013-01-27 04:03:00,33.3,32.0,30.04,NE,35,0.0,4.0,95,0.00,,,0.00,meteohub,2013-01-27 12:03:00,
2013-01-27 04:08:00,33.3,32.0,30.04,NE,35,0.0,4.0,95,0.00,,,0.00,meteohub,2013-01-27 12:08:00,
2013-01-27 04:13:00,33.1,31.8,30.04,NE,35,0.0,4.0,95,0.00,,,0.00,meteohub,2013-01-27 12:13:00,
2013-01-27 04:18:00,32.9,31.6,30.04,NE,35,0.0,2.0,95,0.00,,,0.00,meteohub,2013-01-27 12:18:00,
2013-01-27 04:23:00,32.7,31.5,30.05,ENE,62,0.0,0.0,95,0.00,,,0.00,meteohub,2013-01-27 12:23:00,
2013-01-27 04:28:00,32.5,31.3,30.05,ENE,61,0.0,0.0,95,0.00,,,0.00,meteohub,2013-01-27 12:28:00,
2013-01-27 04:33:00,32.4,31.1,30.05,ENE,61,0.0,0.0,95,0.00,,,0.00,meteohub,2013-01-27 12:33:00,
2013-01-27 04:38:00,32.2,30.9,30.05,ENE,61,0.0,0.0,95,0.00,,,0.00,meteohub,2013-01-27 12:38:00,
2013-01-27 04:44:00,32.4,31.1,30.05,ENE,61,0.0,0.0,95,0.00,,,0.00,meteohub,2013-01-27 12:44:00,
2013-01-27 04:49:00,32.4,31.1,30.05,ENE,61,0.0,0.0,95,0.00,,,0.00,meteohub,2013-01-27 12:49:00,
2013-01-27 04:54:00,32.5,31.3,30.05,ENE,61,0.0,0.0,95,0.00,,,0.00,meteohub,2013-01-27 12:54:00,
2013-01-27 04:59:00,32.5,31.3,30.05,West,281,0.0,0.0,95,0.00,,,0.00,meteohub,2013-01-27 12:59:00,
2013-01-27 05:04:00,32.5,31.3,30.05,WSW,238,0.0,0.0,95,0.00,,,0.00,meteohub,2013-01-27 13:04:00,
2013-01-27 05:09:00,32.4,31.1,30.05,WSW,240,0.0,0.0,95,0.00,,,0.00,meteohub,2013-01-27 13:09:00,
2013-01-27 05:14:00,32.0,30.7,30.05,WSW,240,0.0,2.0,95,0.00,,,0.00,meteohub,2013-01-27 13:14:00,
2013-01-27 05:19:00,32.0,30.7,30.05,WSW,240,0.0,2.0,95,0.00,,,0.00,meteohub,2013-01-27 13:19:00,
2013-01-27 05:24:00,32.0,30.7,30.05,WSW,240,0.0,1.0,95,0.00,,,0.00,meteohub,2013-01-27 13:24:00,
2013-01-27 05:29:00,31.8,30.6,30.05,WSW,240,0.0,1.0,95,0.00,,,0.00,meteohub,2013-01-27 13:29:00,
2013-01-27 05:34:00,31.8,30.7,30.05,ENE,74,1.0,1.0,96,0.00,,,0.00,meteohub,2013-01-27 13:34:00,
2013-01-27 05:39:00,32.4,31.3,30.06,ENE,74,0.0,2.0,96,0.00,,,0.00,meteohub,2013-01-27 13:39:00,
2013-01-27 05:44:00,32.2,31.1,30.06,ENE,74,0.0,2.0,96,0.00,,,0.00,meteohub,2013-01-27 13:44:00,
2013-01-27 05:49:00,32.2,31.1,30.06,ENE,74,0.0,1.0,96,0.00,,,0.00,meteohub,2013-01-27 13:49:00,
2013-01-27 05:54:00,31.8,30.6,30.06,SSW,196,1.0,1.0,95,0.00,,,0.00,meteohub,2013-01-27 13:54:00,
2013-01-27 05:59:00,31.5,30.2,30.06,WSW,254,0.0,1.0,95,0.00,,,0.00,meteohub,2013-01-27 13:59:00,
2013-01-27 06:04:00,31.5,30.2,30.06,WSW,254,0.0,2.0,95,0.00,,,0.00,meteohub,2013-01-27 14:04:00,
2013-01-27 06:09:00,31.6,30.6,30.07,WSW,254,1.0,2.0,96,0.00,,,0.00,meteohub,2013-01-27 14:09:00,
2013-01-27 06:14:00,31.6,30.6,30.07,WSW,254,0.0,1.0,96,0.00,,,0.00,meteohub,2013-01-27 14:14:00,
2013-01-27 06:19:00,31.6,30.6,30.07,WSW,254,0.0,1.0,96,0.00,,,0.00,meteohub,2013-01-27 14:19:00,
2013-01-27 06:24:00,31.6,30.6,30.06,WSW,254,0.0,1.0,96,0.00,,,0.00,meteohub,2013-01-27 14:24:00,
2013-01-27 06:29:00,31.5,30.4,30.06,WSW,254,0.0,1.0,96,0.00,,,0.00,meteohub,2013-01-27 14:29:00,
2013-01-27 06:34:00,31.5,30.4,30.07,WNW,288,1.0,2.0,96,0.00,,,0.00,meteohub,2013-01-27 14:34:00,
2013-01-27 06:40:00,31.3,30.2,30.07,WNW,298,1.0,2.0,96,0.00,,,0.00,meteohub,2013-01-27 14:40:00,
2013-01-27 06:45:00,31.5,30.4,30.07,NNW,334,1.0,2.0,96,0.00,,,0.00,meteohub,2013-01-27 14:45:00,
2013-01-27 06:50:00,31.3,30.2,30.08,NNW,335,0.0,2.0,96,0.00,,,0.00,meteohub,2013-01-27 14:50:00,
2013-01-27 06:55:00,31.3,30.2,30.08,NNW,335,0.0,2.0,96,0.00,,,0.00,meteohub,2013-01-27 14:55:00,
2013-01-27 07:00:00,31.5,30.4,30.08,North,351,0.0,1.0,96,0.00,,,0.00,meteohub,2013-01-27 15:00:00,
2013-01-27 07:05:00,31.3,30.2,30.09,NNW,330,0.0,1.0,96,0.00,,,0.00,meteohub,2013-01-27 15:05:00,
2013-01-27 07:10:00,31.1,30.0,30.09,NNW,330,0.0,1.0,96,0.00,,,0.00,meteohub,2013-01-27 15:10:00,
2013-01-27 07:15:00,30.9,29.8,30.09,NNW,331,0.0,1.0,96,0.00,,,0.00,meteohub,2013-01-27 15:15:00,
2013-01-27 07:20:00,30.9,29.8,30.10,NNW,331,0.0,1.0,96,0.00,,,0.00,meteohub,2013-01-27 15:20:00,
2013-01-27 07:25:00,30.9,29.8,30.10,NNW,330,0.0,1.0,96,0.00,,,0.00,meteohub,2013-01-27 15:25:00,
2013-01-27 07:30:00,30.7,29.7,30.10,NNW,331,0.0,1.0,96,0.00,,,0.00,meteohub,2013-01-27 15:30:00,
2013-01-27 07:35:00,30.9,29.8,30.10,NNW,340,1.0,1.0,96,0.00,,,0.00,meteohub,2013-01-27 15:35:00,
2013-01-27 07:40:00,31.3,30.2,30.10,NNW,340,0.0,1.0,96,0.00,,,0.00,meteohub,2013-01-27 15:40:00,
2013-01-27 07:45:00,31.3,30.2,30.10,NNW,340,0.0,1.0,96,0.00,,,0.00,meteohub,2013-01-27 15:45:00,
2013-01-27 07:50:00,31.3,30.2,30.11,West,273,1.0,1.0,96,0.00,,,0.00,meteohub,2013-01-27 15:50:00,
2013-01-27 07:55:00,31.5,30.4,30.11,West,273,0.0,1.0,96,0.00,,,0.00,meteohub,2013-01-27 15:55:00,
2013-01-27 08:00:00,31.8,30.7,30.11,West,273,0.0,1.0,96,0.00,,,0.00,meteohub,2013-01-27 16:00:00,
2013-01-27 08:05:00,32.4,31.3,30.12,West,273,0.0,1.0,96,0.00,,,0.00,meteohub,2013-01-27 16:05:00,
2013-01-27 08:10:00,32.7,31.6,30.12,West,273,1.0,0.0,96,0.00,,,0.00,meteohub,2013-01-27 16:10:00,
2013-01-27 08:15:00,33.1,32.0,30.12,West,274,0.0,1.0,96,0.00,,,0.00,meteohub,2013-01-27 16:15:00,
2013-01-27 08:20:00,34.0,32.9,30.12,West,275,0.0,1.0,96,0.00,,,0.00,meteohub,2013-01-27 16:20:00,
2013-01-27 08:25:00,34.7,33.6,30.12,West,275,0.0,1.0,96,0.00,,,0.00,meteohub,2013-01-27 16:25:00,
2013-01-27 08:30:00,35.8,34.7,30.12,West,275,0.0,1.0,96,0.00,,,0.00,meteohub,2013-01-27 16:30:00,
2013-01-27 08:35:00,37.0,36.0,30.12,West,274,0.0,1.0,96,0.00,,,0.00,meteohub,2013-01-27 16:35:00,
2013-01-27 08:41:00,37.2,35.6,30.12,West,275,0.0,1.0,94,0.00,,,0.00,meteohub,2013-01-27 16:41:00,
2013-01-27 08:46:00,37.6,35.8,30.12,West,273,0.0,0.0,93,0.00,,,0.00,meteohub,2013-01-27 16:46:00,
2013-01-27 08:51:00,38.7,36.5,30.12,West,275,0.0,1.0,92,0.00,,,0.00,meteohub,2013-01-27 16:51:00,
2013-01-27 08:56:00,39.4,36.5,30.12,West,275,0.0,1.0,89,0.00,,,0.00,meteohub,2013-01-27 16:56:00,
2013-01-27 09:01:00,40.5,37.2,30.12,West,275,0.0,1.0,88,0.00,,,0.00,meteohub,2013-01-27 17:01:00,
2013-01-27 09:06:00,41.2,36.7,30.13,West,275,0.0,1.0,84,0.00,,,0.00,meteohub,2013-01-27 17:06:00,
2013-01-27 09:11:00,41.4,37.2,30.13,West,275,0.0,1.0,85,0.00,,,0.00,meteohub,2013-01-27 17:11:00,
2013-01-27 09:16:00,41.4,36.5,30.13,West,275,0.0,1.0,83,0.00,,,0.00,meteohub,2013-01-27 17:16:00,
2013-01-27 09:21:00,41.7,36.7,30.12,SW,221,0.0,1.0,82,0.00,,,0.00,meteohub,2013-01-27 17:21:00,
2013-01-27 09:26:00,42.4,36.7,30.12,SSW,211,1.0,1.0,80,0.00,,,0.00,meteohub,2013-01-27 17:26:00,
2013-01-27 09:31:00,42.6,37.2,30.12,SSW,211,1.0,2.0,81,0.00,,,0.00,meteohub,2013-01-27 17:31:00,
2013-01-27 09:36:00,43.0,36.9,30.13,West,267,1.0,2.0,79,0.00,,,0.00,meteohub,2013-01-27 17:36:00,
2013-01-27 09:41:00,43.0,35.6,30.13,West,265,2.0,2.0,75,0.00,,,0.00,meteohub,2013-01-27 17:41:00,
2013-01-27 09:46:00,43.2,36.7,30.13,West,273,1.0,3.0,78,0.00,,,0.00,meteohub,2013-01-27 17:46:00,
2013-01-27 09:51:00,43.5,36.1,30.13,NW,309,1.0,3.0,75,0.00,,,0.00,meteohub,2013-01-27 17:51:00,
2013-01-27 09:56:00,44.1,36.3,30.13,West,277,1.0,4.0,74,0.00,,,0.00,meteohub,2013-01-27 17:56:00,
2013-01-27 10:01:00,44.6,36.9,30.13,WNW,299,1.0,4.0,74,0.00,,,0.00,meteohub,2013-01-27 18:01:00,
2013-01-27 10:06:00,45.1,36.7,30.13,NE,50,1.0,3.0,72,0.00,,,0.00,meteohub,2013-01-27 18:06:00,
2013-01-27 10:11:00,45.7,36.9,30.13,NNE,16,1.0,2.0,71,0.00,,,0.00,meteohub,2013-01-27 18:11:00,
2013-01-27 10:16:00,46.0,36.5,30.13,NE,46,0.0,3.0,69,0.00,,,0.00,meteohub,2013-01-27 18:16:00,
2013-01-27 10:21:00,46.4,36.9,30.13,WNW,288,4.0,4.0,69,0.00,,,0.00,meteohub,2013-01-27 18:21:00,
2013-01-27 10:26:00,46.8,36.3,30.13,West,267,1.0,4.0,67,0.00,,,0.00,meteohub,2013-01-27 18:26:00,
2013-01-27 10:31:00,47.3,36.1,30.13,WNW,284,3.0,4.0,65,0.00,,,0.00,meteohub,2013-01-27 18:31:00,
2013-01-27 10:36:00,47.5,36.7,30.14,West,276,2.0,6.0,66,0.00,,,0.00,meteohub,2013-01-27 18:36:00,
2013-01-27 10:42:00,47.7,36.5,30.14,WNW,296,2.0,6.0,65,0.00,,,0.00,meteohub,2013-01-27 18:42:00,
2013-01-27 10:47:00,47.8,36.3,30.14,West,261,2.0,5.0,64,0.00,,,0.00,meteohub,2013-01-27 18:47:00,
2013-01-27 10:52:00,48.4,36.3,30.14,WNW,286,0.0,5.0,63,0.00,,,0.00,meteohub,2013-01-27 18:52:00,
2013-01-27 10:57:00,48.7,36.3,30.14,NNE,22,0.0,5.0,62,0.00,,,0.00,meteohub,2013-01-27 18:57:00,
2013-01-27 11:02:00,49.3,36.3,30.14,West,280,3.0,4.0,61,0.00,,,0.00,meteohub,2013-01-27 19:02:00,
2013-01-27 11:07:00,49.1,36.3,30.14,NE,38,1.0,5.0,61,0.00,,,0.00,meteohub,2013-01-27 19:07:00,
2013-01-27 11:12:00,49.5,36.5,30.14,SSE,165,2.0,5.0,61,0.00,,,0.00,meteohub,2013-01-27 19:12:00,
2013-01-27 11:17:00,49.6,36.7,30.14,West,260,4.0,4.0,61,0.00,,,0.00,meteohub,2013-01-27 19:17:00,
2013-01-27 11:22:00,49.6,36.0,30.13,West,280,1.0,5.0,59,0.00,,,0.00,meteohub,2013-01-27 19:22:00,
2013-01-27 11:27:00,50.2,36.9,30.13,SSW,198,0.0,5.0,60,0.00,,,0.00,meteohub,2013-01-27 19:27:00,
2013-01-27 11:32:00,50.7,37.4,30.13,WNW,290,3.0,5.0,60,0.00,,,0.00,meteohub,2013-01-27 19:32:00,
2013-01-27 11:37:00,51.1,36.9,30.13,WNW,283,3.0,5.0,58,0.00,,,0.00,meteohub,2013-01-27 19:37:00,
2013-01-27 11:42:00,51.1,37.2,30.13,NNW,336,0.0,5.0,59,0.00,,,0.00,meteohub,2013-01-27 19:42:00,
2013-01-27 11:47:00,51.4,36.7,30.13,WSW,257,2.0,4.0,57,0.00,,,0.00,meteohub,2013-01-27 19:47:00,
2013-01-27 11:52:00,51.8,36.1,30.13,WSW,240,2.0,4.0,55,0.00,,,0.00,meteohub,2013-01-27 19:52:00,
2013-01-27 11:57:00,52.0,35.8,30.13,NE,46,1.0,5.0,54,0.00,,,0.00,meteohub,2013-01-27 19:57:00,
2013-01-27 12:02:00,52.0,35.8,30.13,West,261,1.0,6.0,54,0.00,,,0.00,meteohub,2013-01-27 20:02:00,
2013-01-27 12:07:00,52.2,35.6,30.12,West,279,4.0,6.0,53,0.00,,,0.00,meteohub,2013-01-27 20:07:00,
2013-01-27 12:12:00,52.2,34.5,30.12,WSW,256,2.0,8.0,51,0.00,,,0.00,meteohub,2013-01-27 20:12:00,
2013-01-27 12:17:00,52.5,34.9,30.12,West,260,1.0,8.0,51,0.00,,,0.00,meteohub,2013-01-27 20:17:00,
2013-01-27 12:22:00,52.5,34.9,30.11,WNW,294,1.0,8.0,51,0.00,,,0.00,meteohub,2013-01-27 20:22:00,
2013-01-27 12:27:00,53.1,34.3,30.11,WSW,242,0.0,6.0,49,0.00,,,0.00,meteohub,2013-01-27 20:27:00,
2013-01-27 12:32:00,53.1,33.8,30.11,NW,312,2.0,6.0,48,0.00,,,0.00,meteohub,2013-01-27 20:32:00,
2013-01-27 12:37:00,53.2,35.1,30.10,NNE,16,3.0,7.0,50,0.00,,,0.00,meteohub,2013-01-27 20:37:00,
2013-01-27 12:42:00,53.2,35.6,30.10,NNW,333,1.0,7.0,51,0.00,,,0.00,meteohub,2013-01-27 20:42:00,
2013-01-27 12:48:00,53.8,34.0,30.10,SW,225,3.0,6.0,47,0.00,,,0.00,meteohub,2013-01-27 20:48:00,
2013-01-27 12:53:00,53.6,34.3,30.10,West,267,2.0,9.0,48,0.00,,,0.00,meteohub,2013-01-27 20:53:00,
2013-01-27 12:58:00,53.8,33.4,30.10,NNE,22,3.0,9.0,46,0.00,,,0.00,meteohub,2013-01-27 20:58:00,
2013-01-27 13:03:00,54.0,32.0,30.10,ESE,102,2.0,7.0,43,0.00,,,0.00,meteohub,2013-01-27 21:03:00,
2013-01-27 13:08:00,54.1,34.3,30.09,NW,322,8.0,8.0,47,0.00,,,0.00,meteohub,2013-01-27 21:08:00,
2013-01-27 13:13:00,54.1,34.3,30.09,NW,326,4.0,9.0,47,0.00,,,0.00,meteohub,2013-01-27 21:13:00,
2013-01-27 13:18:00,54.1,34.9,30.09,WSW,253,3.0,9.0,48,0.00,,,0.00,meteohub,2013-01-27 21:18:00,
2013-01-27 13:23:00,54.3,33.4,30.09,NW,307,1.0,9.0,45,0.00,,,0.00,meteohub,2013-01-27 21:23:00,
2013-01-27 13:28:00,54.7,33.8,30.09,WNW,298,0.0,6.0,45,0.00,,,0.00,meteohub,2013-01-27 21:28:00,
2013-01-27 13:33:00,54.9,33.4,30.09,West,271,2.0,9.0,44,0.00,,,0.00,meteohub,2013-01-27 21:33:00,
2013-01-27 13:38:00,54.9,34.0,30.08,WNW,292,5.0,9.0,45,0.00,,,0.00,meteohub,2013-01-27 21:38:00,
2013-01-27 13:43:00,55.2,33.6,30.08,WSW,248,3.0,8.0,44,0.00,,,0.00,meteohub,2013-01-27 21:43:00,
2013-01-27 13:48:00,55.4,33.3,30.08,North,10,2.0,8.0,43,0.00,,,0.00,meteohub,2013-01-27 21:48:00,
2013-01-27 13:53:00,55.4,33.8,30.08,West,259,1.0,5.0,44,0.00,,,0.00,meteohub,2013-01-27 21:53:00,
2013-01-27 13:58:00,56.1,34.5,30.08,WSW,242,4.0,6.0,44,0.00,,,0.00,meteohub,2013-01-27 21:58:00,
2013-01-27 14:03:00,55.6,34.0,30.08,WNW,287,5.0,11.0,44,0.00,,,0.00,meteohub,2013-01-27 22:03:00,
2013-01-27 14:08:00,55.6,34.5,30.08,WSW,257,3.0,11.0,45,0.00,,,0.00,meteohub,2013-01-27 22:08:00,
2013-01-27 14:13:00,55.6,34.5,30.08,WSW,257,4.0,11.0,45,0.00,,,0.00,meteohub,2013-01-27 22:13:00,
2013-01-27 14:18:00,55.4,32.7,30.08,NW,308,4.0,10.0,42,0.00,,,0.00,meteohub,2013-01-27 22:18:00,
2013-01-27 14:23:00,55.8,34.2,30.07,West,273,3.0,11.0,44,0.00,,,0.00,meteohub,2013-01-27 22:23:00,
2013-01-27 14:28:00,55.8,33.6,30.07,WNW,288,3.0,11.0,43,0.00,,,0.00,meteohub,2013-01-27 22:28:00,
2013-01-27 14:33:00,55.8,34.2,30.07,WNW,287,8.0,10.0,44,0.00,,,0.00,meteohub,2013-01-27 22:33:00,
2013-01-27 14:38:00,56.1,35.1,30.07,WSW,249,4.0,11.0,45,0.00,,,0.00,meteohub,2013-01-27 22:38:00,
2013-01-27 14:43:00,55.8,35.2,30.07,WSW,256,4.0,11.0,46,0.00,,,0.00,meteohub,2013-01-27 22:43:00,
2013-01-27 14:48:00,55.9,34.9,30.07,West,279,4.0,10.0,45,0.00,,,0.00,meteohub,2013-01-27 22:48:00,
2013-01-27 14:54:00,55.9,36.0,30.07,WSW,251,3.0,13.0,47,0.00,,,0.00,meteohub,2013-01-27 22:54:00,
2013-01-27 14:59:00,55.6,35.1,30.07,WNW,283,5.0,14.0,46,0.00,,,0.00,meteohub,2013-01-27 22:59:00,
2013-01-27 15:04:00,55.8,35.8,30.07,NW,308,2.0,14.0,47,0.00,,,0.00,meteohub,2013-01-27 23:04:00,
2013-01-27 15:09:00,55.8,35.2,30.07,West,280,7.0,14.0,46,0.00,,,0.00,meteohub,2013-01-27 23:09:00,
2013-01-27 15:14:00,55.8,35.2,30.07,West,279,3.0,12.0,46,0.00,,,0.00,meteohub,2013-01-27 23:14:00,
2013-01-27 15:19:00,56.1,35.1,30.07,NW,304,11.0,11.0,45,0.00,,,0.00,meteohub,2013-01-27 23:19:00,
2013-01-27 15:24:00,56.1,35.1,30.07,WNW,292,3.0,12.0,45,0.00,,,0.00,meteohub,2013-01-27 23:24:00,
2013-01-27 15:29:00,56.3,34.7,30.07,West,266,5.0,12.0,44,0.00,,,0.00,meteohub,2013-01-27 23:29:00,
2013-01-27 15:34:00,55.9,33.8,30.07,West,270,4.0,12.0,43,0.00,,,0.00,meteohub,2013-01-27 23:34:00,
2013-01-27 15:39:00,55.9,33.8,30.06,West,280,4.0,11.0,43,0.00,,,0.00,meteohub,2013-01-27 23:39:00,
2013-01-27 15:44:00,55.9,33.8,30.06,NW,307,5.0,13.0,43,0.00,,,0.00,meteohub,2013-01-27 23:44:00,
2013-01-27 15:49:00,56.3,33.4,30.06,WSW,242,3.0,13.0,42,0.00,,,0.00,meteohub,2013-01-27 23:49:00,
2013-01-27 15:54:00,56.1,32.7,30.06,WNW,302,3.0,13.0,41,0.00,,,0.00,meteohub,2013-01-27 23:54:00,
2013-01-27 15:59:00,55.9,32.5,30.06,SW,225,6.0,14.0,41,0.00,,,0.00,meteohub,2013-01-27 23:59:00,
2013-01-27 16:04:00,55.9,33.3,30.06,West,277,2.0,14.0,42,0.00,,,0.00,meteohub,2013-01-28 00:04:00,
2013-01-27 16:09:00,55.9,32.5,30.06,West,280,4.0,12.0,41,0.00,,,0.00,meteohub,2013-01-28 00:09:00,
2013-01-27 16:14:00,55.8,32.4,30.06,WNW,289,5.0,12.0,41,0.00,,,0.00,meteohub,2013-01-28 00:14:00,
2013-01-27 16:19:00,55.6,32.9,30.06,NW,323,9.0,12.0,42,0.00,,,0.00,meteohub,2013-01-28 00:19:00,
2013-01-27 16:24:00,55.4,33.3,30.05,WNW,295,5.0,10.0,43,0.00,,,0.00,meteohub,2013-01-28 00:24:00,
2013-01-27 16:29:00,55.2,33.6,30.05,West,273,5.0,12.0,44,0.00,,,0.00,meteohub,2013-01-28 00:29:00,
2013-01-27 16:34:00,55.0,34.2,30.06,WNW,291,7.0,12.0,45,0.00,,,0.00,meteohub,2013-01-28 00:34:00,
2013-01-27 16:40:00,54.9,34.0,30.06,WSW,242,9.0,12.0,45,0.00,,,0.00,meteohub,2013-01-28 00:40:00,
2013-01-27 16:45:00,54.3,34.0,30.06,SW,227,2.0,13.0,46,0.00,,,0.00,meteohub,2013-01-28 00:45:00,
2013-01-27 16:50:00,54.1,33.8,30.06,WSW,252,3.0,13.0,46,0.00,,,0.00,meteohub,2013-01-28 00:50:00,
2013-01-27 16:55:00,54.0,34.2,30.06,WNW,286,4.0,12.0,47,0.00,,,0.00,meteohub,2013-01-28 00:55:00,
2013-01-27 17:00:00,53.8,34.5,30.06,West,275,1.0,10.0,48,0.00,,,0.00,meteohub,2013-01-28 01:00:00,
2013-01-27 17:05:00,53.4,34.7,30.06,WNW,283,2.0,16.0,49,0.00,,,0.00,meteohub,2013-01-28 01:05:00,
2013-01-27 17:10:00,52.9,34.7,30.06,WNW,290,5.0,16.0,50,0.00,,,0.00,meteohub,2013-01-28 01:10:00,
2013-01-27 17:15:00,52.3,34.7,30.06,WSW,256,9.0,13.0,51,0.00,,,0.00,meteohub,2013-01-28 01:15:00,
2013-01-27 17:20:00,52.0,34.9,30.07,WNW,283,7.0,15.0,52,0.00,,,0.00,meteohub,2013-01-28 01:20:00,
2013-01-27 17:25:00,51.6,35.1,30.07,NW,306,5.0,15.0,53,0.00,,,0.00,meteohub,2013-01-28 01:25:00,
2013-01-27 17:30:00,51.3,34.7,30.07,WNW,286,9.0,15.0,53,0.00,,,0.00,meteohub,2013-01-28 01:30:00,
2013-01-27 17:35:00,51.1,35.1,30.07,WNW,294,7.0,12.0,54,0.00,,,0.00,meteohub,2013-01-28 01:35:00,
2013-01-27 17:40:00,50.7,35.1,30.07,West,272,3.0,12.0,55,0.00,,,0.00,meteohub,2013-01-28 01:40:00,
2013-01-27 17:45:00,50.4,35.2,30.07,NW,315,3.0,13.0,56,0.00,,,0.00,meteohub,2013-01-28 01:45:00,
2013-01-27 17:50:00,50.2,35.6,30.07,NW,312,1.0,13.0,57,0.00,,,0.00,meteohub,2013-01-28 01:50:00,
2013-01-27 17:55:00,49.8,35.2,30.07,WNW,294,3.0,13.0,57,0.00,,,0.00,meteohub,2013-01-28 01:55:00,
2013-01-27 18:00:00,49.5,35.2,30.07,NW,326,0.0,9.0,58,0.00,,,0.00,meteohub,2013-01-28 02:00:00,
2013-01-27 18:05:00,49.1,35.4,30.09,NNW,340,1.0,7.0,59,0.00,,,0.00,meteohub,2013-01-28 02:05:00,
2013-01-27 18:10:00,48.7,35.4,30.09,NW,311,3.0,6.0,60,0.00,,,0.00,meteohub,2013-01-28 02:10:00,
2013-01-27 18:15:00,48.6,35.8,30.09,NNW,336,3.0,6.0,61,0.00,,,0.00,meteohub,2013-01-28 02:15:00,
2013-01-27 18:20:00,48.4,35.6,30.09,NE,34,3.0,5.0,61,0.00,,,0.00,meteohub,2013-01-28 02:20:00,
2013-01-27 18:26:00,48.0,35.6,30.09,NW,322,1.0,5.0,62,0.00,,,0.00,meteohub,2013-01-28 02:26:00,
2013-01-27 18:31:00,47.8,35.4,30.09,NW,323,2.0,5.0,62,0.00,,,0.00,meteohub,2013-01-28 02:31:00,
2013-01-27 18:36:00,47.7,35.6,30.09,WNW,287,0.0,5.0,63,0.00,,,0.00,meteohub,2013-01-28 02:36:00,
2013-01-27 18:41:00,47.5,36.0,30.09,WNW,296,0.0,5.0,64,0.00,,,0.00,meteohub,2013-01-28 02:41:00,
2013-01-27 18:46:00,47.3,35.8,30.09,WSW,257,0.0,3.0,64,0.00,,,0.00,meteohub,2013-01-28 02:46:00,
2013-01-27 18:51:00,47.1,35.6,30.09,West,271,1.0,5.0,64,0.00,,,0.00,meteohub,2013-01-28 02:51:00,
2013-01-27 18:56:00,46.9,35.8,30.09,NNW,329,0.0,3.0,65,0.00,,,0.00,meteohub,2013-01-28 02:56:00,
2013-01-27 19:01:00,46.8,36.0,30.09,SSE,156,1.0,2.0,66,0.00,,,0.00,meteohub,2013-01-28 03:01:00,
2013-01-27 19:06:00,46.6,35.8,30.10,SE,140,1.0,2.0,66,0.00,,,0.00,meteohub,2013-01-28 03:06:00,
2013-01-27 19:11:00,46.2,36.0,30.10,ESE,123,1.0,3.0,67,0.00,,,0.00,meteohub,2013-01-28 03:11:00,
2013-01-27 19:16:00,46.0,36.1,30.10,East,95,2.0,3.0,68,0.00,,,0.00,meteohub,2013-01-28 03:16:00,
2013-01-27 19:21:00,46.0,36.1,30.10,ENE,77,1.0,3.0,68,0.00,,,0.00,meteohub,2013-01-28 03:21:00,
2013-01-27 19:26:00,45.9,36.0,30.10,East,84,0.0,3.0,68,0.00,,,0.00,meteohub,2013-01-28 03:26:00,
2013-01-27 19:31:00,45.5,36.0,30.10,East,83,0.0,3.0,69,0.00,,,0.00,meteohub,2013-01-28 03:31:00,
2013-01-27 19:36:00,45.1,36.0,30.10,WSW,244,0.0,1.0,70,0.00,,,0.00,meteohub,2013-01-28 03:36:00,
2013-01-27 19:41:00,44.8,36.0,30.10,WSW,243,0.0,1.0,71,0.00,,,0.00,meteohub,2013-01-28 03:41:00,
2013-01-27 19:46:00,44.4,36.0,30.10,WSW,244,0.0,1.0,72,0.00,,,0.00,meteohub,2013-01-28 03:46:00,
2013-01-27 19:51:00,44.4,36.0,30.11,ENE,71,1.0,1.0,72,0.00,,,0.00,meteohub,2013-01-28 03:51:00,
2013-01-27 19:56:00,44.1,36.0,30.11,ENE,71,0.0,1.0,73,0.00,,,0.00,meteohub,2013-01-28 03:56:00,
2013-01-27 20:02:00,43.9,35.8,30.11,ENE,71,0.0,2.0,73,0.00,,,0.00,meteohub,2013-01-28 04:02:00,
2013-01-27 20:07:00,43.7,36.0,30.11,ENE,71,0.0,13.0,74,0.00,,,0.00,meteohub,2013-01-28 04:07:00,
2013-01-27 20:12:00,43.9,36.1,30.11,West,279,1.0,13.0,74,0.00,,,0.00,meteohub,2013-01-28 04:12:00,
2013-01-27 20:17:00,44.1,36.0,30.11,West,276,0.0,12.0,73,0.00,,,0.00,meteohub,2013-01-28 04:17:00,
2013-01-27 20:22:00,43.7,36.0,30.11,West,275,0.0,16.0,74,0.00,,,0.00,meteohub,2013-01-28 04:22:00,
2013-01-27 20:27:00,43.7,36.3,30.11,WNW,291,0.0,16.0,75,0.00,,,0.00,meteohub,2013-01-28 04:27:00,
2013-01-27 20:32:00,43.9,36.1,30.11,NW,304,1.0,16.0,74,0.00,,,0.00,meteohub,2013-01-28 04:32:00,
2013-01-27 20:37:00,43.5,36.1,30.10,WNW,295,1.0,13.0,75,0.00,,,0.00,meteohub,2013-01-28 04:37:00,
2013-01-27 20:42:00,43.5,36.1,30.10,ENE,63,3.0,15.0,75,0.00,,,0.00,meteohub,2013-01-28 04:42:00,
2013-01-27 20:47:00,43.9,36.5,30.10,West,268,1.0,15.0,75,0.00,,,0.00,meteohub,2013-01-28 04:47:00,
2013-01-27 20:52:00,44.1,36.3,30.10,NW,313,0.0,12.0,74,0.00,,,0.00,meteohub,2013-01-28 04:52:00,
2013-01-27 20:57:00,43.7,36.0,30.10,East,83,2.0,12.0,74,0.00,,,0.00,meteohub,2013-01-28 04:57:00,
2013-01-27 21:00:00,43.3,36.0,30.10,ENE,67,0.0,12.0,75,0.00,,,0.00,meteohub,2013-01-28 05:00:00,
2013-01-27 21:04:00,43.3,36.0,30.10,ENE,67,1.0,12.0,75,0.00,,,0.00,meteohub,2013-01-28 05:04:00,
2013-01-27 21:09:00,43.5,36.5,30.11,WNW,302,4.0,13.0,76,0.00,,,0.00,meteohub,2013-01-28 05:09:00,
2013-01-27 21:14:00,44.8,36.7,30.11,West,271,2.0,13.0,73,0.00,,,0.00,meteohub,2013-01-28 05:14:00,
2013-01-27 21:19:00,44.8,36.7,30.11,SW,226,2.0,9.0,73,0.00,,,0.00,meteohub,2013-01-28 05:19:00,
2013-01-27 21:24:00,43.9,35.8,30.10,ESE,113,3.0,7.0,73,0.00,,,0.00,meteohub,2013-01-28 05:24:00,
2013-01-27 21:29:00,43.2,35.8,30.10,SE,136,2.0,6.0,75,0.00,,,0.00,meteohub,2013-01-28 05:29:00,
2013-01-27 21:34:00,42.8,35.8,30.11,East,93,4.0,6.0,76,0.00,,,0.00,meteohub,2013-01-28 05:34:00,
2013-01-27 21:40:00,42.3,35.6,30.11,East,86,1.0,5.0,77,0.00,,,0.00,meteohub,2013-01-28 05:40:00,
2013-01-27 21:45:00,41.9,35.6,30.11,WSW,238,0.0,5.0,78,0.00,,,0.00,meteohub,2013-01-28 05:45:00,
2013-01-27 21:50:00,41.4,35.4,30.12,SW,236,0.0,5.0,79,0.00,,,0.00,meteohub,2013-01-28 05:50:00,
2013-01-27 21:55:00,40.8,35.1,30.12,South,169,1.0,5.0,80,0.00,,,0.00,meteohub,2013-01-28 05:55:00,
2013-01-27 22:00:00,40.8,35.4,30.12,SSW,200,2.0,5.0,81,0.00,,,0.00,meteohub,2013-01-28 06:00:00,
2013-01-27 22:05:00,40.8,35.4,30.11,SSE,147,1.0,5.0,81,0.00,,,0.00,meteohub,2013-01-28 06:05:00,
2013-01-27 22:10:00,40.8,35.4,30.11,SW,221,0.0,5.0,81,0.00,,,0.00,meteohub,2013-01-28 06:10:00,
2013-01-27 22:15:00,40.8,35.4,30.11,WNW,287,0.0,3.0,81,0.00,,,0.00,meteohub,2013-01-28 06:15:00,
2013-01-27 22:20:00,40.6,35.6,30.11,WNW,287,0.0,2.0,82,0.00,,,0.00,meteohub,2013-01-28 06:20:00,
2013-01-27 22:25:00,40.3,35.2,30.11,WNW,287,0.0,2.0,82,0.00,,,0.00,meteohub,2013-01-28 06:25:00,
2013-01-27 22:30:00,40.3,35.2,30.11,ESE,122,1.0,2.0,82,0.00,,,0.00,meteohub,2013-01-28 06:30:00,
2013-01-27 22:35:00,39.9,35.2,30.12,ESE,122,0.0,3.0,83,0.00,,,0.00,meteohub,2013-01-28 06:35:00,
2013-01-27 22:40:00,40.3,35.6,30.12,ENE,63,4.0,4.0,83,0.00,,,0.00,meteohub,2013-01-28 06:40:00,
2013-01-27 22:45:00,41.2,35.8,30.12,West,275,1.0,3.0,81,0.00,,,0.00,meteohub,2013-01-28 06:45:00,
2013-01-27 22:50:00,41.2,35.4,30.12,West,273,0.0,3.0,80,0.00,,,0.00,meteohub,2013-01-28 06:50:00,
2013-01-27 22:55:00,41.2,35.8,30.12,NNE,24,2.0,2.0,81,0.00,,,0.00,meteohub,2013-01-28 06:55:00,
2013-01-27 23:00:00,40.8,35.4,30.12,WSW,240,0.0,1.0,81,0.00,,,0.00,meteohub,2013-01-28 07:00:00,
2013-01-27 23:05:00,40.3,35.2,30.12,SE,136,1.0,1.0,82,0.00,,,0.00,meteohub,2013-01-28 07:05:00,
2013-01-27 23:10:00,39.9,34.9,30.12,ENE,65,0.0,1.0,82,0.00,,,0.00,meteohub,2013-01-28 07:10:00,
2013-01-27 23:15:00,39.7,35.1,30.12,ESE,105,0.0,2.0,83,0.00,,,0.00,meteohub,2013-01-28 07:15:00,
2013-01-27 23:22:00,39.4,34.9,30.13,ESE,105,1.0,2.0,84,0.00,,,0.00,meteohub,2013-01-28 07:22:00,
2013-01-27 23:28:00,39.6,35.1,30.13,NE,34,0.0,2.0,84,0.00,,,0.00,meteohub,2013-01-28 07:28:00,
2013-01-27 23:33:00,39.6,35.1,30.13,NE,34,0.0,1.0,84,0.00,,,0.00,meteohub,2013-01-28 07:33:00,
2013-01-27 23:38:00,39.6,35.1,30.13,NE,34,1.0,1.0,84,0.00,,,0.00,meteohub,2013-01-28 07:38:00,
2013-01-27 23:43:00,39.7,35.2,30.13,NNE,33,0.0,1.0,84,0.00,,,0.00,meteohub,2013-01-28 07:43:00,
2013-01-27 23:48:00,39.7,35.1,30.13,East,80,1.0,2.0,83,0.00,,,0.00,meteohub,2013-01-28 07:48:00,
2013-01-27 23:53:00,39.6,34.9,30.14,East,80,1.0,2.0,83,0.00,,,0.00,meteohub,2013-01-28 07:53:00,
2013-01-27 23:58:00,39.4,34.9,30.14,SW,226,0.0,2.0,84,0.00,,,0.00,meteohub,2013-01-28 07:58:00,